createdAt,value
2019-03-17T00:02:22.083Z,99743.78
2019-03-17T00:04:51.413Z,99742.33
2019-03-17T00:07:22.992Z,99745.49
2019-03-17T00:09:51.772Z,99741.95
2019-03-17T00:12:22.101Z,99741.20
2019-03-17T00:14:51.192Z,99739.45
2019-03-17T00:17:25.023Z,99739.98
2019-03-17T00:19:52.866Z,99735.34
2019-03-17T00:22:24.706Z,99740.90
2019-03-17T00:25:08.194Z,99734.40
2019-03-17T00:27:26.452Z,99734.27
2019-03-17T00:29:57.924Z,99723.81
2019-03-17T00:32:29.202Z,99728.84
2019-03-17T00:35:00.796Z,99720.00
2019-03-17T00:37:32.171Z,99719.77
2019-03-17T00:40:00.737Z,99715.95
2019-03-17T00:42:32.277Z,99714.19
2019-03-17T00:45:05.907Z,99707.93
2019-03-17T00:47:37.175Z,99713.95
2019-03-17T00:50:12.975Z,99696.44
2019-03-17T00:52:41.511Z,99696.70
2019-03-17T00:55:14.425Z,99690.79
2019-03-17T00:57:46.004Z,99683.85
2019-03-17T01:00:17.662Z,99677.76
2019-03-17T01:02:49.504Z,99669.83
2019-03-17T01:05:18.144Z,99672.88
2019-03-17T01:07:49.619Z,99678.45
2019-03-17T01:10:21.298Z,99665.94
2019-03-17T01:12:52.521Z,99659.70
2019-03-17T01:15:23.771Z,99654.18
2019-03-17T01:17:55.137Z,99651.96
2019-03-17T01:20:23.715Z,99649.78
2019-03-17T01:22:52.258Z,99645.43
2019-03-17T01:25:23.549Z,99646.86
2019-03-17T01:27:55.032Z,99640.53
2019-03-17T01:30:24.055Z,99635.75
2019-03-17T01:32:55.426Z,99634.69
2019-03-17T01:35:26.991Z,99635.11
2019-03-17T01:37:58.383Z,99632.09
2019-03-17T01:40:29.620Z,99622.84
2019-03-17T01:42:58.276Z,99621.17
2019-03-17T01:45:30.263Z,99620.47
2019-03-17T01:47:58.810Z,99616.67
2019-03-17T01:50:27.884Z,99616.21
2019-03-17T01:52:56.814Z,99606.30
2019-03-17T01:55:28.502Z,99600.89
2019-03-17T01:58:00.201Z,99598.53
2019-03-17T02:00:31.779Z,99599.59
2019-03-17T02:03:00.324Z,99595.10
2019-03-17T02:05:29.216Z,99596.08
2019-03-17T02:07:57.830Z,99584.96
2019-03-17T02:10:29.610Z,99592.72
2019-03-17T02:12:58.317Z,99590.05
2019-03-17T02:15:27.370Z,99594.72
2019-03-17T02:17:58.784Z,99589.91
2019-03-17T02:20:30.069Z,99583.80
2019-03-17T02:23:01.643Z,99587.41
2019-03-17T02:25:32.927Z,99584.96
2019-03-17T02:28:01.541Z,99576.27
2019-03-17T02:30:30.102Z,99572.93
2019-03-17T02:33:01.621Z,99576.58
2019-03-17T02:35:39.441Z,99573.81
2019-03-17T02:38:03.517Z,99578.16
2019-03-17T02:40:32.132Z,99577.86
2019-03-17T02:43:00.705Z,99572.15
2019-03-17T02:45:29.515Z,99571.86
2019-03-17T02:48:01.314Z,99573.67
2019-03-17T02:50:29.877Z,99568.03
2019-03-17T02:53:01.085Z,99568.12
2019-03-17T02:55:29.657Z,99561.04
2019-03-17T02:57:58.209Z,99550.13
2019-03-17T03:00:30.098Z,99558.27
2019-03-17T03:03:01.552Z,99561.93
2019-03-17T03:05:30.218Z,99562.33
2019-03-17T03:07:59.253Z,99560.95
2019-03-17T03:10:32.133Z,99562.16
2019-03-17T03:13:03.966Z,99551.05
2019-03-17T03:15:35.804Z,99547.62
2019-03-17T03:18:07.287Z,99539.02
2019-03-17T03:20:41.616Z,99536.80
2019-03-17T03:23:12.871Z,99534.52
2019-03-17T03:25:44.303Z,99531.83
2019-03-17T03:28:12.860Z,99522.86
2019-03-17T03:30:44.491Z,99524.66
2019-03-17T03:33:13.115Z,99525.20
2019-03-17T03:35:44.373Z,99512.03
2019-03-17T03:38:15.648Z,99508.14
2019-03-17T03:40:46.866Z,99520.53
2019-03-17T03:43:18.161Z,99514.38
2019-03-17T03:45:46.727Z,99513.69
2019-03-17T03:48:18.516Z,99515.38
2019-03-17T03:50:49.912Z,99515.06
2019-03-17T03:53:18.529Z,99510.92
2019-03-17T03:55:49.903Z,99504.31
2019-03-17T03:58:21.208Z,99509.19
2019-03-17T04:00:52.881Z,99503.16
2019-03-17T04:03:24.190Z,99496.83
2019-03-17T04:05:52.713Z,99495.31
2019-03-17T04:08:21.391Z,99489.83
2019-03-17T04:10:52.966Z,99484.78
2019-03-17T04:13:21.694Z,99471.98
2019-03-17T04:15:50.394Z,99473.28
2019-03-17T04:18:19.206Z,99463.38
2019-03-17T04:20:50.825Z,99478.70
2019-03-17T04:23:19.463Z,99472.16
2019-03-17T04:25:51.073Z,99473.38
2019-03-17T04:28:19.618Z,99471.35
2019-03-17T04:30:51.411Z,99474.83
2019-03-17T04:33:20.355Z,99473.00
2019-03-17T04:35:51.884Z,99476.26
2019-03-17T04:38:23.680Z,99472.00
2019-03-17T04:40:54.766Z,99466.69
2019-03-17T04:43:23.333Z,99466.91
2019-03-17T04:45:51.930Z,99463.18
2019-03-17T04:48:23.624Z,99457.72
2019-03-17T04:50:54.872Z,99459.49
2019-03-17T04:53:26.368Z,99457.88
2019-03-17T04:55:57.895Z,99457.02
2019-03-17T04:58:26.458Z,99456.69
2019-03-17T05:00:57.974Z,99448.77
2019-03-17T05:03:26.620Z,99450.98
2019-03-17T05:05:55.166Z,99442.63
2019-03-17T05:08:26.714Z,99438.53
2019-03-17T05:10:55.450Z,99442.92
2019-03-17T05:13:24.057Z,99438.44
2019-03-17T05:15:52.663Z,99439.69
2019-03-17T05:18:21.567Z,99430.55
2019-03-17T05:20:52.921Z,99436.31
2019-03-17T05:23:21.492Z,99434.70
2019-03-17T05:25:52.961Z,99433.59
2019-03-17T05:28:23.194Z,99429.09
2019-03-17T05:30:54.626Z,99427.80
2019-03-17T05:33:23.266Z,99420.20
2019-03-17T05:35:51.916Z,99420.88
2019-03-17T05:38:23.429Z,99424.89
2019-03-17T05:40:54.543Z,99421.34
2019-03-17T05:43:25.818Z,99418.56
2019-03-17T05:45:57.834Z,99419.34
2019-03-17T05:48:27.811Z,99409.15
2019-03-17T05:50:56.353Z,99396.37
2019-03-17T05:53:27.837Z,99399.28
2019-03-17T05:55:56.869Z,99394.11
2019-03-17T05:58:25.436Z,99401.28
2019-03-17T06:00:53.985Z,99398.06
2019-03-17T06:03:23.440Z,99397.09
2019-03-17T06:05:51.999Z,99401.03
2019-03-17T06:08:23.611Z,99405.83
2019-03-17T06:10:55.443Z,99405.59
2019-03-17T06:13:24.110Z,99404.43
2019-03-17T06:15:52.658Z,99407.75
2019-03-17T06:18:21.241Z,99413.00
2019-03-17T06:20:50.288Z,99413.08
2019-03-17T06:23:18.990Z,99414.85
2019-03-17T06:25:50.468Z,99410.72
2019-03-17T06:28:21.558Z,99418.53
2019-03-17T06:30:52.446Z,99417.69
2019-03-17T06:33:21.073Z,99410.72
2019-03-17T06:35:52.954Z,99406.52
2019-03-17T06:38:24.595Z,99405.19
2019-03-17T06:40:53.408Z,99404.83
2019-03-17T06:43:21.977Z,99403.31
2019-03-17T06:45:50.559Z,99414.33
2019-03-17T06:48:19.104Z,99416.71
2019-03-17T06:50:47.739Z,99411.89
2019-03-17T06:53:19.002Z,99422.58
2019-03-17T06:55:50.222Z,99422.11
2019-03-17T06:58:18.766Z,99420.16
2019-03-17T07:00:47.338Z,99429.55
2019-03-17T07:03:15.880Z,99422.91
2019-03-17T07:05:47.360Z,99413.35
2019-03-17T07:08:16.231Z,99411.02
2019-03-17T07:10:44.798Z,99406.44
2019-03-17T07:13:13.513Z,99403.61
2019-03-17T07:15:42.164Z,99396.60
2019-03-17T07:18:11.198Z,99394.12
2019-03-17T07:23:18.087Z,99389.38
2019-03-17T07:25:46.650Z,99393.09
2019-03-17T07:28:17.240Z,99401.89
2019-03-17T07:30:45.830Z,99395.28
2019-03-17T07:33:20.309Z,99395.75
2019-03-17T07:35:46.501Z,99383.32
2019-03-17T07:38:21.515Z,99390.00
2019-03-17T07:40:54.428Z,99393.91
2019-03-17T07:43:22.992Z,99383.94
2019-03-17T07:45:54.475Z,99372.50
2019-03-17T07:48:26.315Z,99384.69
2019-03-17T07:50:57.950Z,99382.88
2019-03-17T07:53:27.119Z,99379.03
2019-03-17T07:55:58.681Z,99373.59
2019-03-17T07:58:27.244Z,99374.09
2019-03-17T08:00:56.432Z,99371.85
2019-03-17T08:03:24.995Z,99371.72
2019-03-17T08:05:53.625Z,99362.41
2019-03-17T08:08:22.216Z,99375.52
2019-03-17T08:10:53.860Z,99381.64
2019-03-17T08:13:22.414Z,99370.09
2019-03-17T08:15:53.744Z,99367.65
2019-03-17T08:18:22.295Z,99362.48
2019-03-17T08:20:53.916Z,99377.31
2019-03-17T08:23:25.365Z,99372.41
2019-03-17T08:25:56.864Z,99379.97
2019-03-17T08:28:25.600Z,99378.36
2019-03-17T08:30:54.189Z,99376.58
2019-03-17T08:33:22.732Z,99387.38
2019-03-17T08:35:54.504Z,99376.55
2019-03-17T08:38:23.042Z,99383.78
2019-03-17T08:40:53.733Z,99377.50
2019-03-17T08:43:22.289Z,99381.38
2019-03-17T08:45:50.851Z,99378.17
2019-03-17T08:48:19.737Z,99388.67
2019-03-17T08:50:51.054Z,99382.76
2019-03-17T08:53:19.596Z,99386.61
2019-03-17T08:55:48.795Z,99380.45
2019-03-17T08:58:17.342Z,99390.73
2019-03-17T09:00:45.913Z,99387.47
2019-03-17T09:03:14.465Z,99386.34
2019-03-17T09:05:45.712Z,99383.16
2019-03-17T09:08:15.053Z,99383.45
2019-03-17T09:10:43.622Z,99383.66
2019-03-17T09:13:15.528Z,99392.20
2019-03-17T09:15:44.302Z,99388.49
2019-03-17T09:18:12.919Z,99394.50
2019-03-17T09:20:44.523Z,99389.98
2019-03-17T09:23:15.763Z,99388.90
2019-03-17T09:25:44.456Z,99399.49
2019-03-17T09:28:15.814Z,99392.16
2019-03-17T09:30:44.367Z,99389.49
2019-03-17T09:33:12.985Z,99386.13
2019-03-17T09:35:41.594Z,99389.66
2019-03-17T09:38:13.089Z,99384.77
2019-03-17T09:40:41.639Z,99387.45
2019-03-17T09:43:13.065Z,99381.75
2019-03-17T09:45:44.642Z,99388.13
2019-03-17T09:48:15.885Z,99387.08
2019-03-17T09:50:47.675Z,99392.33
2019-03-17T09:53:16.254Z,99384.96
2019-03-17T09:55:44.797Z,99376.52
2019-03-17T09:58:16.355Z,99384.97
2019-03-17T10:00:48.022Z,99368.30
2019-03-17T10:03:19.556Z,99367.09
2019-03-17T10:05:50.916Z,99376.61
2019-03-17T10:08:19.498Z,99377.06
2019-03-17T10:10:48.128Z,99378.27
2019-03-17T10:13:19.511Z,99375.54
2019-03-17T10:15:48.142Z,99377.16
2019-03-17T10:18:16.765Z,99379.08
2019-03-17T10:20:45.387Z,99378.66
2019-03-17T10:23:14.015Z,99374.10
2019-03-17T10:25:45.817Z,99380.52
2019-03-17T10:28:14.397Z,99371.35
2019-03-17T10:30:42.948Z,99378.16
2019-03-17T10:33:11.513Z,99375.08
2019-03-17T10:35:42.944Z,99376.48
2019-03-17T10:38:11.924Z,99395.27
2019-03-17T10:40:40.530Z,99363.30
2019-03-17T10:43:10.801Z,99380.55
2019-03-17T10:45:39.350Z,99383.06
2019-03-17T10:48:14.496Z,99386.73
2019-03-17T10:50:49.870Z,99388.63
2019-03-17T10:53:16.407Z,99390.18
2019-03-17T10:55:45.383Z,99386.00
2019-03-17T10:58:13.994Z,99382.78
2019-03-17T11:00:42.538Z,99379.08
2019-03-17T11:03:14.529Z,99382.13
2019-03-17T11:05:43.152Z,99387.45
2019-03-17T11:08:12.295Z,99390.87
2019-03-17T11:10:42.385Z,99391.56
2019-03-17T11:13:13.759Z,99394.75
2019-03-17T11:15:45.742Z,99392.33
2019-03-17T11:18:16.994Z,99393.45
2019-03-17T11:20:49.024Z,99401.48
2019-03-17T11:23:20.454Z,99401.30
2019-03-17T11:25:51.791Z,99400.34
2019-03-17T11:28:20.370Z,99390.41
2019-03-17T11:30:54.946Z,99409.89
2019-03-17T11:33:23.636Z,99407.97
2019-03-17T11:35:55.037Z,99387.05
2019-03-17T11:38:26.526Z,99402.19
2019-03-17T11:40:57.845Z,99402.39
2019-03-17T11:43:26.430Z,99391.49
2019-03-17T11:45:57.683Z,99382.91
2019-03-17T11:48:26.326Z,99370.91
2019-03-17T11:50:58.231Z,99385.72
2019-03-17T11:53:29.736Z,99386.30
2019-03-17T11:55:58.357Z,99374.08
2019-03-17T11:58:26.983Z,99378.22
2019-03-17T12:00:55.547Z,99384.11
2019-03-17T12:03:24.511Z,99388.36
2019-03-17T12:05:53.059Z,99399.39
2019-03-17T12:08:21.707Z,99399.97
2019-03-17T12:10:50.252Z,99405.55
2019-03-17T12:13:19.061Z,99405.09
2019-03-17T12:15:47.604Z,99404.40
2019-03-17T12:18:16.175Z,99413.66
2019-03-17T12:20:47.728Z,99402.00
2019-03-17T12:23:16.319Z,99404.73
2019-03-17T12:25:44.872Z,99411.02
2019-03-17T12:28:13.448Z,99394.66
2019-03-17T12:30:42.018Z,99388.98
2019-03-17T12:33:10.595Z,99386.19
2019-03-17T12:35:41.851Z,99401.55
2019-03-17T12:38:13.541Z,99402.86
2019-03-17T12:40:42.087Z,99412.14
2019-03-17T12:43:10.800Z,99399.89
2019-03-17T12:45:39.613Z,99406.27
2019-03-17T12:48:08.221Z,99403.70
2019-03-17T12:50:36.860Z,99403.48
2019-03-17T12:53:10.834Z,99390.86
2019-03-17T12:55:42.346Z,99385.22
2019-03-17T12:58:14.914Z,99381.84
2019-03-17T13:00:46.724Z,99379.76
2019-03-17T13:03:18.345Z,99376.16
2019-03-17T13:05:49.576Z,99379.76
2019-03-17T13:08:18.133Z,99382.45
2019-03-17T13:10:46.809Z,99383.80
2019-03-17T13:13:18.304Z,99382.69
2019-03-17T13:15:49.769Z,99402.39
2019-03-17T13:18:18.747Z,99409.84
2019-03-17T13:20:50.323Z,99409.70
2019-03-17T13:23:21.888Z,99412.72
2019-03-17T13:25:50.512Z,99431.38
2019-03-17T13:28:43.612Z,99417.22
2019-03-17T13:31:15.589Z,99416.39
2019-03-17T13:33:47.194Z,99412.86
2019-03-17T13:36:15.818Z,99419.53
2019-03-17T13:38:47.110Z,99407.16
2019-03-17T13:41:15.734Z,99465.20
2019-03-17T13:43:47.089Z,99486.04
2019-03-17T13:46:18.674Z,99500.38
2019-03-17T13:48:50.172Z,99528.50
2019-03-17T13:51:18.815Z,99528.37
2019-03-17T13:53:47.848Z,99529.16
2019-03-17T13:56:19.235Z,99549.73
2019-03-17T13:58:47.852Z,99565.80
2019-03-17T14:01:19.298Z,99582.91
2019-03-17T14:03:47.953Z,99583.34
2019-03-17T14:06:17.067Z,99587.98
2019-03-17T14:08:46.463Z,99584.85
2019-03-17T14:11:15.027Z,99580.67
2019-03-17T14:13:43.675Z,99597.26
2019-03-17T14:16:15.849Z,99593.91
2019-03-17T14:18:47.449Z,99601.36
2019-03-17T14:21:16.094Z,99612.79
2019-03-17T14:23:47.874Z,99607.69
2019-03-17T14:26:19.463Z,99602.31
2019-03-17T14:28:48.109Z,99591.88
2019-03-17T14:31:16.723Z,99603.16
2019-03-17T14:33:45.340Z,99611.84
2019-03-17T14:36:13.965Z,99599.39
2019-03-17T14:38:43.005Z,99593.12
2019-03-17T14:41:14.749Z,99602.52
2019-03-17T14:43:43.295Z,99597.13
2019-03-17T14:46:11.969Z,99603.19
2019-03-17T14:48:43.521Z,99612.83
2019-03-17T14:51:14.810Z,99616.41
2019-03-17T14:53:46.903Z,99622.62
2019-03-17T14:56:18.282Z,99616.89
2019-03-17T14:58:47.204Z,99606.78
2019-03-17T15:01:15.840Z,99613.98
2019-03-17T15:03:44.712Z,99622.72
2019-03-17T15:06:13.385Z,99643.98
2019-03-17T15:08:41.990Z,99661.23
2019-03-17T15:11:14.224Z,99678.09
2019-03-17T15:13:43.134Z,99672.69
2019-03-17T15:16:11.739Z,99668.72
2019-03-17T15:18:40.481Z,99663.55
2019-03-17T15:21:10.685Z,99654.45
2019-03-17T15:23:43.800Z,99665.76
2019-03-17T15:26:15.312Z,99668.02
2019-03-17T15:28:43.950Z,99669.59
2019-03-17T15:31:12.775Z,99656.39
2019-03-17T15:33:41.549Z,99665.33
2019-03-17T15:36:11.630Z,99655.88
2019-03-17T15:38:43.207Z,99657.58
2019-03-17T15:41:18.540Z,99654.84
2019-03-17T15:43:42.040Z,99662.04
2019-03-17T15:46:13.448Z,99667.73
2019-03-17T15:48:42.063Z,99663.48
2019-03-17T15:51:20.356Z,99665.38
2019-03-17T15:53:46.560Z,99676.09
2019-03-17T15:56:18.064Z,99667.17
2019-03-17T15:58:46.673Z,99663.05
2019-03-17T16:01:18.243Z,99653.00
2019-03-17T16:03:47.243Z,99647.03
2019-03-17T16:06:19.088Z,99635.45
2019-03-17T16:08:48.339Z,99623.00
2019-03-17T16:11:30.345Z,99639.39
2019-03-17T16:13:52.625Z,99645.79
2019-03-17T16:16:23.868Z,99645.04
2019-03-17T16:18:52.413Z,99648.01
2019-03-17T16:21:21.074Z,99642.22
2019-03-17T16:23:52.868Z,99655.50
2019-03-17T16:26:21.490Z,99660.68
2019-03-17T16:28:52.878Z,99670.14
2019-03-17T16:31:21.510Z,99683.64
2019-03-17T16:33:50.147Z,99691.02
2019-03-17T16:36:21.627Z,99704.24
2019-03-17T16:38:50.490Z,99706.32
2019-03-17T16:41:22.112Z,99711.97
2019-03-17T16:43:50.693Z,99712.69
2019-03-17T16:46:21.085Z,99713.61
2019-03-17T16:48:52.411Z,99720.33
2019-03-17T16:51:21.031Z,99707.35
2019-03-17T16:53:53.016Z,99710.75
2019-03-17T16:56:21.672Z,99723.60
2019-03-17T16:58:50.554Z,99711.37
2019-03-17T17:01:19.172Z,99710.95
2019-03-17T17:03:47.740Z,99719.06
2019-03-17T17:06:19.471Z,99718.27
2019-03-17T17:08:48.037Z,99718.06
2019-03-17T17:11:16.620Z,99727.77
2019-03-17T17:13:45.214Z,99731.73
2019-03-17T17:16:13.862Z,99740.55
2019-03-17T17:18:45.838Z,99731.02
2019-03-17T17:21:17.251Z,99739.17
2019-03-17T17:23:48.769Z,99739.17
2019-03-17T17:26:20.319Z,99747.27
2019-03-17T17:28:48.886Z,99750.06
2019-03-17T17:31:17.444Z,99755.66
2019-03-17T17:33:49.529Z,99753.35
2019-03-17T17:36:18.077Z,99760.41
2019-03-17T17:38:50.081Z,99755.28
2019-03-17T17:41:18.703Z,99762.21
2019-03-17T17:43:50.794Z,99762.36
2019-03-17T17:46:21.997Z,99764.80
2019-03-17T17:48:53.231Z,99765.81
2019-03-17T17:51:24.739Z,99789.99
2019-03-17T17:53:53.714Z,99805.60
2019-03-17T17:56:25.532Z,99803.47
2019-03-17T17:58:55.746Z,99791.29
2019-03-17T18:01:24.292Z,99786.64
2019-03-17T18:03:53.085Z,99790.70
2019-03-17T18:06:21.693Z,99819.89
2019-03-17T18:08:52.971Z,99828.31
2019-03-17T18:11:24.498Z,99832.83
2019-03-17T18:13:56.063Z,99839.84
2019-03-17T18:16:27.439Z,99837.44
2019-03-17T18:18:58.924Z,99862.48
2019-03-17T18:21:27.536Z,99874.77
2019-03-17T18:23:56.270Z,99879.31
2019-03-17T18:26:27.843Z,99874.59
2019-03-17T18:28:56.452Z,99877.84
2019-03-17T18:31:24.996Z,99889.23
2019-03-17T18:33:59.340Z,99895.63
2019-03-17T18:36:32.856Z,99884.55
2019-03-17T18:39:05.582Z,99867.61
2019-03-17T18:41:34.199Z,99882.69
2019-03-17T18:44:02.812Z,99904.92
2019-03-17T18:46:31.352Z,99902.86
2019-03-17T18:49:03.262Z,99916.91
2019-03-17T18:51:31.820Z,99899.34
2019-03-17T18:54:05.522Z,99889.38
2019-03-17T18:56:33.778Z,99914.71
2019-03-17T18:59:05.850Z,99891.86
2019-03-17T19:01:34.409Z,99902.61
2019-03-17T19:04:10.048Z,99919.38
2019-03-17T19:06:41.338Z,99923.06
2019-03-17T19:09:11.582Z,99933.41
2019-03-17T19:11:44.605Z,99956.61
2019-03-17T19:14:16.186Z,99958.42
2019-03-17T19:16:47.827Z,99955.17
2019-03-17T19:19:16.436Z,99958.59
2019-03-17T19:21:45.062Z,99953.42
2019-03-17T19:24:16.751Z,99963.38
2019-03-17T19:26:48.143Z,99964.09
2019-03-17T19:29:17.257Z,99963.09
2019-03-17T19:31:45.886Z,99967.08
2019-03-17T19:34:17.257Z,99966.05
2019-03-17T19:36:45.882Z,99959.56
2019-03-17T19:39:14.507Z,99947.30
2019-03-17T19:41:43.455Z,99950.06
2019-03-17T19:44:15.207Z,99948.41
2019-03-17T19:46:43.865Z,99945.27
2019-03-17T19:49:12.478Z,99947.20
2019-03-17T19:51:44.073Z,99940.75
2019-03-17T19:54:12.685Z,99941.36
2019-03-17T19:56:44.263Z,99937.04
2019-03-17T19:59:12.874Z,99948.60
2019-03-17T20:01:44.145Z,99941.53
2019-03-17T20:04:12.768Z,99947.87
2019-03-17T20:06:41.403Z,99947.87
2019-03-17T20:09:11.114Z,99945.09
2019-03-17T20:11:43.007Z,99931.20
2019-03-17T20:14:14.588Z,99939.08
2019-03-17T20:16:43.199Z,99947.97
2019-03-17T20:19:15.193Z,99959.23
2019-03-17T20:21:45.025Z,99962.11
2019-03-17T20:24:13.637Z,99960.06
2019-03-17T20:26:42.255Z,99976.58
2019-03-17T20:29:12.717Z,99980.52
2019-03-17T20:31:44.214Z,99975.02
2019-03-17T20:34:13.343Z,99996.82
2019-03-17T20:36:41.950Z,99978.69
2019-03-17T20:39:13.537Z,99992.14
2019-03-17T20:41:42.472Z,99992.14
2019-03-17T20:44:17.027Z,99999.13
2019-03-17T20:46:45.637Z,99999.13
2019-03-17T20:49:17.142Z,99997.96
2019-03-17T20:51:45.724Z,99992.80
2019-03-17T20:54:14.277Z,99990.30
2019-03-17T20:56:43.220Z,99989.85
2019-03-17T20:59:11.782Z,99996.14
2019-03-17T21:01:43.116Z,100011.59
2019-03-17T21:04:11.726Z,100014.37
2019-03-17T21:06:43.446Z,100014.37
2019-03-17T21:09:12.005Z,100006.89
2019-03-17T21:11:41.492Z,100032.16
2019-03-17T21:14:13.339Z,100043.99
2019-03-17T21:16:41.926Z,100051.14
2019-03-17T21:19:13.230Z,100051.14
2019-03-17T21:21:44.898Z,100058.77
2019-03-17T21:24:13.471Z,100062.61
2019-03-17T21:26:44.982Z,100061.19
2019-03-17T21:29:13.889Z,100061.19
2019-03-17T21:31:42.489Z,100054.81
2019-03-17T21:34:13.963Z,100061.60
2019-03-17T21:36:42.534Z,100107.52
2019-03-17T21:39:18.064Z,100113.34
2019-03-17T21:41:46.699Z,100118.14
2019-03-17T21:44:15.250Z,100118.14
2019-03-17T21:46:44.737Z,100122.14
2019-03-17T21:49:13.659Z,100131.24
2019-03-17T21:51:42.252Z,100127.55
2019-03-17T21:54:12.336Z,100127.55
2019-03-17T21:56:43.636Z,100140.25
2019-03-17T21:59:15.131Z,100120.80
2019-03-17T22:01:43.716Z,100120.72
2019-03-17T22:04:12.266Z,100120.72
2019-03-17T22:06:43.548Z,100127.69
2019-03-17T22:09:12.140Z,100127.69
2019-03-17T22:11:40.771Z,100140.31
2019-03-17T22:14:12.566Z,100140.31
2019-03-17T22:16:47.002Z,100150.95
2019-03-17T22:19:18.437Z,100151.01
2019-03-17T22:21:47.007Z,100148.18
2019-03-17T22:24:15.570Z,100150.56
2019-03-17T22:26:44.153Z,100153.48
2019-03-17T22:29:12.880Z,100153.48
2019-03-17T22:31:41.543Z,100152.31
2019-03-17T22:34:11.710Z,100154.72
2019-03-17T22:36:40.342Z,100160.18
2019-03-17T22:39:11.876Z,100160.18
2019-03-17T22:41:44.245Z,100155.27
2019-03-17T22:44:23.746Z,100155.27
2019-03-17T22:46:45.832Z,100143.08
2019-03-17T22:49:17.433Z,100152.25
2019-03-17T22:51:45.991Z,100152.25
2019-03-17T22:54:17.560Z,100165.59
2019-03-17T22:56:48.999Z,100169.38
2019-03-17T22:59:20.572Z,100169.38
2019-03-17T23:01:52.625Z,100177.96
2019-03-17T23:04:22.177Z,100191.50
2019-03-17T23:06:50.873Z,100165.83
2019-03-17T23:09:19.874Z,100165.83
2019-03-17T23:11:48.432Z,100181.23
2019-03-17T23:14:17.143Z,100198.05
2019-03-17T23:16:48.775Z,100181.83
2019-03-17T23:19:17.353Z,100181.83
2019-03-17T23:21:45.924Z,100190.75
2019-03-17T23:24:17.421Z,100190.75
2019-03-17T23:26:46.315Z,100172.14
2019-03-17T23:29:18.199Z,100151.02
2019-03-17T23:31:46.759Z,100151.02
2019-03-17T23:34:18.263Z,100182.27
2019-03-17T23:36:46.827Z,100172.47
2019-03-17T23:39:18.268Z,100186.59
2019-03-17T23:41:46.856Z,100194.38
2019-03-17T23:44:18.265Z,100199.87
2019-03-17T23:46:49.885Z,100196.73
2019-03-17T23:49:18.453Z,100196.73
2019-03-17T23:51:47.024Z,100202.80
2019-03-17T23:54:15.599Z,100206.04
2019-03-17T23:56:47.185Z,100206.04
2019-03-17T23:59:18.775Z,100207.73
